createdAt,value
2023-04-17T00:00:02.091Z,1016.4541575991262
2023-04-17T00:15:01.765Z,1016.4394487133056
2023-04-17T00:30:01.466Z,1016.4173718077504
2023-04-17T00:45:02.099Z,1016.4134012997328
2023-04-17T01:00:01.740Z,1016.4149839943229
2023-04-17T01:15:01.421Z,1016.3929672564584
2023-04-17T01:30:02.105Z,1016.3933388115079
2023-04-17T01:45:01.732Z,1016.3279828576219
2023-04-17T02:00:01.511Z,1016.3728185960151
2023-04-17T02:15:01.432Z,1016.3581486221628
2023-04-17T02:30:02.170Z,1016.4208128429661
2023-04-17T02:45:01.899Z,1016.4765927411994
2023-04-17T03:00:01.920Z,1016.4971100527074
2023-04-17T03:15:01.568Z,1016.5920516670398
2023-04-17T03:30:02.272Z,1016.6092644440516
2023-04-17T03:45:01.931Z,1016.7386477515605
2023-04-17T04:00:01.573Z,1016.9295829278724
2023-04-17T04:15:02.214Z,1016.9364083108832
2023-04-17T04:30:02.053Z,1017.0517090447157
2023-04-17T04:45:01.739Z,1017.1270501353835
2023-04-17T05:00:01.347Z,1017.1859190513323
2023-04-17T05:15:02.024Z,1017.3943472903521
2023-04-17T05:30:01.807Z,1017.5114692080059
2023-04-17T05:45:01.431Z,1017.6191387366381
2023-04-17T06:00:02.045Z,1017.750097894232
2023-04-17T06:15:01.641Z,1017.8261678434299
2023-04-17T06:30:02.267Z,1017.938703332756
2023-04-17T06:45:01.851Z,1018.0628139910355
2023-04-17T07:00:01.758Z,1018.1832159306448
2023-04-17T07:15:02.478Z,1018.3361318683732
2023-04-17T07:30:02.096Z,1018.416249115002
2023-04-17T07:45:01.750Z,1018.5072659871112
2023-04-17T08:00:02.350Z,1018.5764334980016
2023-04-17T08:15:02.114Z,1018.666972689016
2023-04-17T08:30:01.785Z,1018.8749330010952
2023-04-17T08:45:02.419Z,1018.9448727031549
2023-04-17T09:00:02.131Z,1018.9938519493879
2023-04-17T09:15:01.802Z,1019.0312871102442
2023-04-17T09:30:02.411Z,1019.0914953078868
2023-04-17T09:45:02.128Z,1019.0928515582211
2023-04-17T10:00:01.849Z,1019.071579086464
2023-04-17T10:15:01.511Z,1019.0599121276302
2023-04-17T10:30:02.274Z,1019.0342823109831
2023-04-17T10:45:02.022Z,1018.8289868673145
2023-04-17T11:00:01.644Z,1018.7779995914243
2023-04-17T11:15:02.261Z,1018.5923086228744
2023-04-17T11:30:01.975Z,1018.594756795876
2023-04-17T11:45:03.623Z,1018.5817176632435
2023-04-17T12:00:01.932Z,1018.5533079897614
2023-04-17T12:15:01.628Z,1018.4998818503582
2023-04-17T12:30:02.262Z,1018.4558984262807
2023-04-17T12:45:01.976Z,1018.4034700641823
2023-04-17T13:00:01.585Z,1018.2741836886548
2023-04-17T13:15:02.222Z,1018.1787257269048
2023-04-17T13:30:01.894Z,1017.9575597129558
2023-04-17T13:45:01.560Z,1017.8155550064782
2023-04-17T14:00:02.125Z,1017.7668713370758
2023-04-17T14:15:01.820Z,1017.6860516453792
2023-04-17T14:30:01.808Z,1017.4658478465128
2023-04-17T14:45:01.558Z,1017.2682941430706
2023-04-17T15:00:02.209Z,1017.1678502211826
2023-04-17T15:15:01.886Z,1017.168454631108
2023-04-17T15:30:01.673Z,1017.0144181391952
2023-04-17T15:45:01.329Z,1016.893364674335
2023-04-17T16:00:01.953Z,1016.8394932723475
2023-04-17T16:15:01.561Z,1016.9456887092972
2023-04-17T16:30:02.300Z,1016.9439203211092
2023-04-17T16:45:02.078Z,1016.8613666430954
2023-04-17T17:00:01.675Z,1016.8983397974733
2023-04-17T17:15:01.403Z,1016.9082755675262
2023-04-17T17:30:02.112Z,1016.991273940394
2023-04-17T17:45:01.783Z,1017.0957149615331
2023-04-17T18:00:01.483Z,1017.1401454419631
2023-04-17T18:15:01.279Z,1017.2305766065957
2023-04-17T18:30:01.955Z,1017.3819437128228
2023-04-17T18:45:01.566Z,1017.5981059994504
2023-04-17T19:00:01.163Z,1017.7526824185276
2023-04-17T19:15:01.823Z,1017.9433233432524
2023-04-17T19:30:01.487Z,1018.0463511390487
2023-04-17T19:45:01.130Z,1018.0920758089773
2023-04-17T20:00:01.697Z,1018.0687245749518
2023-04-17T20:15:01.338Z,1018.0343727945535
2023-04-17T20:30:02.027Z,1018.2038356958698
2023-04-17T20:45:01.642Z,1018.1653795258457
2023-04-17T21:00:01.209Z,1018.2926642022545
2023-04-17T21:15:01.873Z,1018.2999561374916
2023-04-17T21:30:01.563Z,1018.454667450225
2023-04-17T21:45:01.178Z,1018.51922166726
2023-04-17T22:00:01.793Z,1018.6979788978449
2023-04-17T22:15:01.433Z,1018.6613924754354
2023-04-17T22:30:01.116Z,1018.7452290143816
2023-04-17T22:45:01.766Z,1018.7205132921812
2023-04-17T23:00:01.707Z,1018.803151038642
2023-04-17T23:15:01.386Z,1018.8167160729936
2023-04-17T23:30:02.134Z,1018.7742172995834
2023-04-17T23:45:01.821Z,1018.830638531716
